Danzig, Poland
Current Conditions -  °F | °C
As of 9:30 PM on Saturday 25 Oct 2014 (Local Time) from EPGD Reporting Station
Haze Haze  
Wind Chill: 30°   Ceiling: 900
Heat Index: 36°   Visibility: 2.5mi
Dew Point: 32°   Wind: 7mph
Humidity: 87%   Direction: 200°SSW
Pressure: 30.21"   Gusts: NA
Location:  54.38°N, 18.47°E
Report Text: EPGD 251930Z 20006KT 150V260 4000 BR OVC009 02/00 Q1023
Loading
Personal Weather Stations






























Interactive Weather Map
Tropical Storm Tracking
New forecast layout! Learn more

10-Day Weather Forecast

Advertisements
Track Severe Weather on mobile